Time;durP1;ratioP1;P1;durP2;ratioP2;P2;SDS_P1;SDS_P2;PMS_P1;PMS_P2;Temp;Humidity;BMP_temperature;BMP_pressure;BME280_temperature;BME280_humidity;BME280_pressure;Samples;Min_cycle;Max_cycle;Signal;HPM_P1;HPM_P2
2021/05/19 00:00:57;;;;;;;0.93;0.93;;;;;;;10.95;100.00;95881.91;4936965;29;20210;-86
2021/05/19 00:03:28;;;;;;;2.60;1.10;;;;;;;11.08;100.00;95944.47;4935966;29;20553;-86
2021/05/19 00:06:10;;;;;;;1.00;1.00;;;;;;;11.27;100.00;95943.25;4937324;29;20202;-86
2021/05/19 00:09:03;;;;;;;0.70;0.70;;;;;;;11.22;100.00;95922.72;4936417;29;20201;-86
2021/05/19 00:11:34;;;;;;;0.50;0.50;;;;;;;10.98;100.00;95791.31;4935383;29;20204;-85
2021/05/19 00:14:03;;;;;;;0.50;0.50;;;;;;;11.08;100.00;95719.09;4936807;29;20191;-86
2021/05/19 00:16:44;;;;;;;2.07;0.60;;;;;;;11.21;100.00;95662.47;4918581;29;20215;-86
2021/05/19 00:19:16;;;;;;;1.50;0.60;;;;;;;11.43;100.00;95636.16;4917568;29;20207;-86
2021/05/19 00:21:48;;;;;;;0.93;0.70;;;;;;;11.28;100.00;95661.59;4917678;29;20206;-86
2021/05/19 00:24:44;;;;;;;0.60;0.60;;;;;;;11.27;100.00;95659.16;4915818;29;20221;-86
2021/05/19 00:27:28;;;;;;;1.40;0.50;;;;;;;11.24;100.00;95665.56;4916645;29;20227;-86
2021/05/19 00:30:00;;;;;;;2.47;0.90;;;;;;;10.88;100.00;95755.56;4916501;29;20639;-85
2021/05/19 00:32:32;;;;;;;1.50;0.97;;;;;;;10.40;100.00;95864.31;4916201;29;20290;-85
2021/05/19 00:35:05;;;;;;;0.50;0.50;;;;;;;10.27;100.00;95880.59;4934803;29;20241;-85
2021/05/19 00:37:48;;;;;;;2.33;0.60;;;;;;;10.35;100.00;95821.97;4917462;29;20230;-85
2021/05/19 00:40:18;;;;;;;1.30;0.90;;;;;;;10.51;100.00;95779.06;4915806;29;20286;-85
2021/05/19 00:42:51;;;;;;;0.70;0.70;;;;;;;10.70;100.00;95718.19;4915890;29;20203;-84
2021/05/19 00:45:19;;;;;;;0.60;0.60;;;;;;;10.94;100.00;95702.31;4922588;29;20214;-85
2021/05/19 00:47:56;;;;;;;0.60;0.60;;;;;;;10.90;100.00;95697.53;4935955;29;20199;-85
2021/05/19 00:50:40;;;;;;;0.70;0.70;;;;;;;11.05;100.00;95729.16;4935924;29;20197;-85
2021/05/19 00:59:07;;;;;;;0.83;0.67;;;;;;;11.02;100.00;95737.41;4917125;29;20231;-86
2021/05/19 01:01:39;;;;;;;0.60;0.60;;;;;;;10.80;100.00;95724.06;4917186;29;20575;-86
2021/05/19 01:04:35;;;;;;;2.07;0.60;;;;;;;10.49;100.00;95713.53;4915566;29;20214;-86
2021/05/19 01:07:09;;;;;;;0.70;0.70;;;;;;;10.27;100.00;95728.25;4916533;29;20212;-86
2021/05/19 01:09:54;;;;;;;0.70;0.70;;;;;;;10.41;100.00;95721.47;4915187;29;20218;-86
2021/05/19 01:12:41;;;;;;;0.57;0.57;;;;;;;10.41;100.00;95722.28;4914647;29;20247;-86
2021/05/19 01:18:19;;;;;;;1.03;0.50;;;;;;;10.55;100.00;95683.94;4916068;29;20231;-86
2021/05/19 01:21:03;;;;;;;0.40;0.40;;;;;;;10.70;100.00;95703.25;4915947;29;20207;-86
2021/05/19 01:26:29;;;;;;;1.70;0.67;;;;;;;10.54;100.00;95684.94;4915404;29;20235;-86
2021/05/19 01:31:39;;;;;;;0.60;0.60;;;;;;;10.84;100.00;95649.13;4916310;29;20199;-86
2021/05/19 01:34:07;;;;;;;0.70;0.70;;;;;;;10.71;100.00;95675.97;4916187;29;20207;-86
2021/05/19 01:36:36;;;;;;;1.00;0.80;;;;;;;10.74;100.00;95716.03;4916631;29;20234;-86
2021/05/19 01:39:07;;;;;;;0.83;0.80;;;;;;;10.79;100.00;95721.59;4916155;29;20234;-85
2021/05/19 01:41:34;;;;;;;2.33;0.70;;;;;;;10.70;100.00;95731.34;4916144;29;20247;-85
2021/05/19 01:44:12;;;;;;;0.47;0.47;;;;;;;10.77;100.00;95699.91;4916039;29;20665;-85
2021/05/19 01:46:39;;;;;;;0.70;0.70;;;;;;;10.42;100.00;95730.97;4915831;29;20184;-86
2021/05/19 01:49:07;;;;;;;0.80;0.80;;;;;;;10.53;100.00;95745.53;4916228;29;20207;-86
2021/05/19 01:51:37;;;;;;;0.70;0.53;;;;;;;10.61;100.00;95717.44;4915939;29;20203;-86
2021/05/19 01:54:08;;;;;;;0.97;0.70;;;;;;;10.64;100.00;95711.84;4915620;29;20203;-85
2021/05/19 01:56:35;;;;;;;0.73;0.60;;;;;;;10.59;100.00;95714.16;4916187;29;20218;-85
2021/05/19 01:59:03;;;;;;;0.93;0.80;;;;;;;10.53;100.00;95709.59;4915699;29;20724;-85
2021/05/19 02:01:31;;;;;;;0.57;0.57;;;;;;;10.49;100.00;95692.50;4915544;29;20207;-85
2021/05/19 02:04:08;;;;;;;3.20;0.97;;;;;;;10.50;100.00;95698.63;4915733;29;20748;-86
2021/05/19 02:06:43;;;;;;;0.70;0.70;;;;;;;10.62;100.00;95681.44;4916237;29;20401;-85
2021/05/19 02:09:11;;;;;;;0.73;0.73;;;;;;;10.64;100.00;95659.28;4916148;29;20288;-85
2021/05/19 02:11:38;;;;;;;0.97;0.60;;;;;;;10.60;100.00;95660.63;4915928;29;20566;-86
2021/05/19 02:14:05;;;;;;;0.63;0.63;;;;;;;10.43;100.00;95667.78;4916128;29;20203;-85
2021/05/19 02:16:32;;;;;;;1.17;0.80;;;;;;;10.02;100.00;95680.22;4915703;29;20206;-85
2021/05/19 02:18:59;;;;;;;2.13;0.77;;;;;;;10.14;100.00;95709.53;5178815;23;20278;-86
2021/05/19 02:21:26;;;;;;;0.63;0.63;;;;;;;10.18;100.00;95695.09;4953810;29;20237;-85
2021/05/19 02:23:53;;;;;;;0.57;0.57;;;;;;;10.19;100.00;95642.41;4954035;28;20202;-85
2021/05/19 02:26:21;;;;;;;0.73;0.73;;;;;;;10.44;100.00;95632.63;4954062;29;20205;-85
2021/05/19 02:28:48;;;;;;;0.70;0.70;;;;;;;10.23;100.00;95620.06;4953824;28;20220;-85
2021/05/19 02:31:15;;;;;;;3.37;0.83;;;;;;;10.27;100.00;95628.44;4953954;28;20280;-85
2021/05/19 02:33:42;;;;;;;2.90;1.10;;;;;;;10.34;100.00;95600.50;4953687;28;20217;-85
2021/05/19 02:36:09;;;;;;;0.60;0.60;;;;;;;9.94;100.00;95609.34;4953804;28;20208;-85
2021/05/19 02:38:37;;;;;;;1.63;0.93;;;;;;;10.27;100.00;95638.94;4953695;28;20221;-85
2021/05/19 02:41:04;;;;;;;0.50;0.50;;;;;;;9.92;100.00;95561.47;4953746;29;20690;-85
2021/05/19 02:43:32;;;;;;;2.23;0.90;;;;;;;9.94;100.00;95522.72;4953708;28;20213;-86
2021/05/19 02:45:59;;;;;;;0.87;0.67;;;;;;;10.02;100.00;95525.31;4951748;29;20705;-86
2021/05/19 02:48:25;;;;;;;0.87;0.60;;;;;;;10.25;100.00;95543.72;4953411;29;20198;-86
2021/05/19 02:50:52;;;;;;;1.53;0.73;;;;;;;9.88;100.00;95520.81;4936617;29;20210;-86
2021/05/19 02:53:19;;;;;;;0.77;0.70;;;;;;;9.85;100.00;95495.72;4934440;29;20293;-86
2021/05/19 02:55:46;;;;;;;7.30;1.50;;;;;;;9.78;100.00;95481.66;4934222;29;20289;-86
2021/05/19 02:58:13;;;;;;;1.30;1.20;;;;;;;9.86;100.00;95507.84;4936763;29;20233;-86
2021/05/19 03:00:41;;;;;;;0.93;0.60;;;;;;;10.25;100.00;95475.44;4938256;29;20738;-86
2021/05/19 03:03:11;;;;;;;2.90;0.83;;;;;;;10.38;100.00;95446.78;4938100;29;20258;-86
2021/05/19 03:05:38;;;;;;;0.70;0.70;;;;;;;10.59;100.00;95447.94;4938195;29;20589;-86
2021/05/19 03:08:05;;;;;;;1.53;0.70;;;;;;;10.33;100.00;95450.97;4937954;29;20710;-85
2021/05/19 03:10:34;;;;;;;0.70;0.70;;;;;;;10.27;100.00;95454.28;4938100;29;20198;-86
2021/05/19 03:13:01;;;;;;;1.70;1.60;;;;;;;10.24;100.00;95427.34;4937768;29;20206;-86
2021/05/19 03:15:28;;;;;;;1.00;0.90;;;;;;;10.26;100.00;95419.34;4937705;29;20206;-86
2021/05/19 03:17:56;;;;;;;1.00;1.00;;;;;;;10.63;100.00;95381.72;4937708;29;20725;-85
2021/05/19 03:20:23;;;;;;;2.90;0.83;;;;;;;10.66;100.00;95426.00;4948657;28;20213;-84
2021/05/19 03:22:50;;;;;;;1.47;1.30;;;;;;;10.55;100.00;95493.94;4956785;28;20201;-85
2021/05/19 03:25:17;;;;;;;1.80;1.47;;;;;;;10.16;100.00;95506.19;4955973;28;20284;-87
2021/05/19 03:27:44;;;;;;;12.37;11.27;;;;;;;9.97;100.00;95477.75;4956080;28;20201;-85
2021/05/19 03:30:13;;;;;;;89.70;63.57;;;;;;;10.09;100.00;95439.63;4956591;28;20204;-86
2021/05/19 03:32:40;;;;;;;13.33;9.03;;;;;;;10.12;100.00;95428.78;4956949;28;20591;-86
2021/05/19 03:35:12;;;;;;;2.37;1.67;;;;;;;10.27;100.00;95420.97;4956034;28;20268;-86
2021/05/19 03:37:40;;;;;;;1.80;1.70;;;;;;;10.34;100.00;95387.75;4956088;29;20210;-86
2021/05/19 03:40:17;;;;;;;19.07;11.47;;;;;;;10.43;100.00;95363.03;4955766;29;20622;-85
2021/05/19 03:42:44;;;;;;;2.67;1.87;;;;;;;10.47;100.00;95356.41;4955865;28;20185;-85
2021/05/19 03:45:14;;;;;;;2.53;1.30;;;;;;;10.65;100.00;95368.38;4956207;28;20198;-85
2021/05/19 03:47:41;;;;;;;1.10;1.10;;;;;;;10.86;100.00;95378.19;4954827;29;20591;-85
2021/05/19 03:50:10;;;;;;;3.20;0.80;;;;;;;10.81;100.00;95339.31;4955486;28;20206;-85
2021/05/19 03:52:38;;;;;;;0.63;0.63;;;;;;;10.92;100.00;95304.66;4955430;28;20212;-83
2021/05/19 03:55:09;;;;;;;1.73;1.43;;;;;;;10.93;100.00;95319.41;4955172;28;20201;-83
2021/05/19 03:57:40;;;;;;;0.50;0.50;;;;;;;10.79;100.00;95312.38;4962091;29;20210;-83
2021/05/19 04:00:12;;;;;;;2.63;0.80;;;;;;;10.80;100.00;95303.47;4961315;28;20217;-82
2021/05/19 04:06:09;;;;;;;0.90;0.90;;;;;;;10.96;100.00;95289.31;4917867;29;20223;-82
2021/05/19 04:08:40;;;;;;;75.47;28.07;;;;;;;10.93;100.00;95274.72;4915157;29;20199;-83
2021/05/19 04:11:20;;;;;;;199.10;78.00;;;;;;;10.88;100.00;95277.09;4929169;29;20678;-84
2021/05/19 04:16:29;;;;;;;7.20;3.50;;;;;;;11.05;100.00;95264.56;4933395;29;20253;-83
2021/05/19 04:18:58;;;;;;;8.83;5.63;;;;;;;11.06;100.00;95266.19;4934166;29;20274;-84
2021/05/19 04:21:26;;;;;;;5.23;3.47;;;;;;;11.02;100.00;95274.63;4934369;29;20202;-83
2021/05/19 04:23:53;;;;;;;1.77;1.67;;;;;;;10.89;100.00;95301.59;4934269;29;20245;-82
2021/05/19 04:26:20;;;;;;;1.87;1.10;;;;;;;10.94;100.00;95314.97;4934390;29;20237;-83
2021/05/19 04:28:47;;;;;;;0.90;0.90;;;;;;;11.03;100.00;95294.66;4934132;29;20199;-82
2021/05/19 04:31:14;;;;;;;0.60;0.60;;;;;;;11.16;100.00;95248.28;4934233;29;20206;-82
2021/05/19 04:33:41;;;;;;;0.60;0.60;;;;;;;11.24;100.00;95257.06;4933920;29;20207;-83
2021/05/19 04:36:09;;;;;;;0.70;0.70;;;;;;;11.33;100.00;95233.06;4934382;29;20198;-83
2021/05/19 04:38:54;;;;;;;0.60;0.60;;;;;;;11.53;100.00;95201.66;4932266;29;20226;-89
2021/05/19 04:41:21;;;;;;;0.93;0.70;;;;;;;11.46;100.00;95218.41;4935123;29;20269;-90
2021/05/19 04:43:48;;;;;;;0.70;0.70;;;;;;;11.60;100.00;95196.44;4953008;29;20201;-87
2021/05/19 04:46:15;;;;;;;6.70;4.03;;;;;;;11.59;100.00;95234.31;4955820;29;20205;-88
2021/05/19 04:48:41;;;;;;;16.93;13.70;;;;;;;11.60;100.00;95315.72;4956063;29;20211;-87
2021/05/19 04:51:08;;;;;;;5.30;4.10;;;;;;;11.70;100.00;95385.63;4955404;28;20201;-87
2021/05/19 04:53:35;;;;;;;3.93;2.83;;;;;;;11.71;100.00;95471.47;4955036;29;20681;-86
2021/05/19 04:56:03;;;;;;;2.57;2.37;;;;;;;11.82;100.00;95532.41;4955446;29;20198;-86
2021/05/19 04:58:30;;;;;;;3.73;2.83;;;;;;;11.95;100.00;95570.44;4955062;29;20230;-86
2021/05/19 05:00:57;;;;;;;3.30;2.90;;;;;;;12.06;100.00;95585.78;4955621;28;20202;-87
2021/05/19 05:03:24;;;;;;;4.90;2.10;;;;;;;12.15;100.00;95608.38;4955361;29;20209;-85
2021/05/19 05:05:53;;;;;;;2.30;1.47;;;;;;;12.24;100.00;95557.22;4955067;28;20211;-85
2021/05/19 05:08:20;;;;;;;1.43;1.23;;;;;;;12.35;100.00;95395.97;4955583;28;20252;-86
2021/05/19 05:10:47;;;;;;;1.30;1.20;;;;;;;12.48;100.00;95220.53;4955353;28;20200;-88
2021/05/19 05:13:15;;;;;;;0.60;0.60;;;;;;;12.70;100.00;95126.31;4955173;28;20268;-87
2021/05/19 05:15:42;;;;;;;1.17;0.77;;;;;;;12.95;100.00;95097.53;4955262;28;20215;-86
2021/05/19 05:18:08;;;;;;;1.07;0.97;;;;;;;13.23;100.00;95053.31;4954527;28;20326;-86
2021/05/19 05:20:36;;;;;;;0.63;0.63;;;;;;;13.45;100.00;95034.66;4954235;28;20238;-86
2021/05/19 05:23:02;;;;;;;0.80;0.60;;;;;;;13.64;100.00;95030.31;4954353;28;20762;-86
2021/05/19 05:25:30;;;;;;;1.57;0.80;;;;;;;13.87;100.00;95009.53;4955036;28;20686;-87
2021/05/19 05:27:57;;;;;;;0.60;0.60;;;;;;;14.11;100.00;94986.06;4954739;29;20197;-86
2021/05/19 05:30:25;;;;;;;0.73;0.73;;;;;;;14.23;100.00;94997.56;4955029;29;20260;-88
2021/05/19 05:32:52;;;;;;;3.03;0.80;;;;;;;14.32;100.00;94977.78;4954825;28;20206;-88
2021/05/19 05:35:19;;;;;;;0.60;0.60;;;;;;;14.44;100.00;94965.53;4955160;28;20209;-89
2021/05/19 05:37:46;;;;;;;1.37;0.60;;;;;;;14.59;100.00;94957.31;4955029;28;20229;-89
2021/05/19 05:40:19;;;;;;;2.10;1.07;;;;;;;14.80;100.00;94927.03;4955353;29;20228;-88
2021/05/19 05:42:46;;;;;;;1.53;0.47;;;;;;;14.95;100.00;94893.06;4954727;28;20245;-90
2021/05/19 05:45:14;;;;;;;1.13;0.40;;;;;;;15.26;100.00;94874.66;4955098;29;20271;-90
2021/05/19 05:47:42;;;;;;;1.50;0.90;;;;;;;15.50;100.00;94847.25;4955120;29;20204;-89
2021/05/19 05:50:15;;;;;;;0.50;0.50;;;;;;;15.79;100.00;94832.41;4955065;28;20205;-88
2021/05/19 05:52:42;;;;;;;2.90;0.80;;;;;;;15.98;100.00;94811.97;4954495;28;20217;-88
2021/05/19 05:55:15;;;;;;;0.60;0.60;;;;;;;16.16;100.00;94760.72;4954509;29;20226;-88
2021/05/19 05:57:42;;;;;;;1.20;0.70;;;;;;;16.46;100.00;94730.63;4954645;28;20226;-89
2021/05/19 06:00:12;;;;;;;2.63;0.77;;;;;;;16.56;100.00;94715.75;4954716;28;20203;-87
2021/05/19 06:02:39;;;;;;;0.70;0.70;;;;;;;16.63;100.00;94710.31;4954970;29;20202;-86
2021/05/19 06:05:08;;;;;;;4.10;1.00;;;;;;;16.75;100.00;94652.72;4954592;29;20294;-88
2021/05/19 06:07:35;;;;;;;2.90;1.00;;;;;;;16.81;100.00;94637.72;4954670;29;20745;-89
2021/05/19 06:10:05;;;;;;;1.83;0.73;;;;;;;16.99;100.00;94604.88;4954826;28;20205;-87
2021/05/19 06:12:32;;;;;;;0.83;0.77;;;;;;;17.13;100.00;94598.22;4954298;28;20211;-87
2021/05/19 06:14:59;;;;;;;1.43;0.70;;;;;;;17.31;100.00;94603.28;4954585;28;20208;-88
2021/05/19 06:17:26;;;;;;;1.00;0.90;;;;;;;17.44;100.00;94577.47;4954723;28;20598;-90
2021/05/19 06:19:53;;;;;;;0.90;0.90;;;;;;;17.45;100.00;94576.41;4955409;28;20278;-89
2021/05/19 06:22:21;;;;;;;0.90;0.90;;;;;;;17.75;100.00;94542.31;4954554;29;20200;-90
2021/05/19 06:24:48;;;;;;;3.90;0.80;;;;;;;17.81;100.00;94553.88;4954638;28;20205;-89
2021/05/19 06:27:15;;;;;;;2.57;2.10;;;;;;;17.87;100.00;94557.38;4954724;28;20635;-87
2021/05/19 06:29:42;;;;;;;1.00;1.00;;;;;;;17.92;100.00;94544.97;4954714;28;20209;-91
2021/05/19 06:32:09;;;;;;;2.30;1.17;;;;;;;18.10;100.00;94533.22;4956362;28;20206;-88
2021/05/19 06:34:37;;;;;;;1.23;0.80;;;;;;;18.13;100.00;94534.59;4958385;29;20248;-90
2021/05/19 06:37:04;;;;;;;2.37;0.63;;;;;;;18.44;100.00;94501.97;4958553;28;20292;-90
2021/05/19 06:39:33;;;;;;;1.70;0.83;;;;;;;18.47;100.00;94524.59;4958619;28;20309;-89
2021/05/19 06:42:00;;;;;;;0.80;0.80;;;;;;;18.54;100.00;94517.22;4958381;28;20198;-86
2021/05/19 06:44:27;;;;;;;1.90;0.70;;;;;;;18.72;100.00;94514.22;4958293;29;20201;-86
2021/05/19 06:46:54;;;;;;;2.40;0.67;;;;;;;18.99;100.00;94524.06;4957542;28;20749;-86
2021/05/19 06:49:21;;;;;;;0.57;0.57;;;;;;;18.98;100.00;94520.59;4957926;28;20198;-87
2021/05/19 06:51:48;;;;;;;0.67;0.63;;;;;;;19.27;100.00;94508.84;4957813;29;20213;-86
2021/05/19 06:54:15;;;;;;;0.70;0.70;;;;;;;19.27;100.00;94492.84;4957513;29;20198;-86
2021/05/19 06:56:45;;;;;;;0.60;0.60;;;;;;;19.61;100.00;94574.09;4957695;28;20248;-86
2021/05/19 06:59:13;;;;;;;0.60;0.60;;;;;;;19.86;100.00;94594.00;4957379;28;20233;-86
2021/05/19 07:01:40;;;;;;;1.63;0.77;;;;;;;19.82;100.00;94638.22;4957267;29;20202;-87
2021/05/19 07:04:07;;;;;;;1.23;0.60;;;;;;;20.05;100.00;94672.50;4957235;28;20202;-86
2021/05/19 07:06:34;;;;;;;1.20;1.00;;;;;;;19.99;100.00;94716.22;4957320;29;20208;-87
2021/05/19 07:09:02;;;;;;;0.60;0.60;;;;;;;20.21;100.00;94765.97;4957254;29;20202;-85
2021/05/19 07:11:28;;;;;;;0.70;0.70;;;;;;;20.35;100.00;94829.31;4957175;28;20202;-86
2021/05/19 07:13:58;;;;;;;1.90;0.60;;;;;;;20.97;100.00;94915.22;4956962;28;20233;-85
2021/05/19 07:16:25;;;;;;;0.83;0.47;;;;;;;21.20;100.00;94996.84;4957112;29;20202;-87
2021/05/19 07:18:54;;;;;;;0.60;0.60;;;;;;;21.38;100.00;95103.41;4956884;28;20332;-86
2021/05/19 07:21:21;;;;;;;1.07;0.70;;;;;;;21.21;100.00;95066.09;4957397;29;20209;-86
2021/05/19 07:23:48;;;;;;;0.60;0.60;;;;;;;21.18;100.00;95232.25;4957431;29;20202;-86
2021/05/19 07:26:15;;;;;;;1.03;0.77;;;;;;;21.38;100.00;95244.25;4956856;28;20209;-86
2021/05/19 07:28:44;;;;;;;4.97;1.13;;;;;;;21.27;100.00;95224.63;4957124;29;20206;-87
2021/05/19 07:31:11;;;;;;;1.17;0.93;;;;;;;21.29;100.00;95123.59;4957019;28;20202;-85
2021/05/19 07:33:38;;;;;;;1.17;1.07;;;;;;;21.01;100.00;95048.00;4956908;29;20202;-86
2021/05/19 07:36:06;;;;;;;1.93;1.60;;;;;;;20.84;100.00;95031.28;4957185;28;20670;-87
2021/05/19 07:38:33;;;;;;;1.37;0.97;;;;;;;20.87;100.00;94964.03;4956867;29;20237;-86
2021/05/19 07:41:00;;;;;;;2.37;1.40;;;;;;;21.38;100.00;94862.06;4956864;28;20193;-87
2021/05/19 07:43:27;;;;;;;1.23;1.00;;;;;;;21.58;100.00;94772.06;4956563;28;20220;-87
2021/05/19 07:45:54;;;;;;;1.00;1.00;;;;;;;21.25;100.00;94687.75;4957048;28;20202;-86
2021/05/19 07:48:22;;;;;;;0.90;0.90;;;;;;;21.33;100.00;94568.84;4956975;29;20198;-87
2021/05/19 07:50:48;;;;;;;1.87;1.03;;;;;;;21.60;100.00;94339.50;4956549;28;20240;-86
2021/05/19 07:53:15;;;;;;;3.07;2.03;;;;;;;21.62;100.00;94232.31;4956986;28;20202;-87
2021/05/19 07:55:47;;;;;;;1.37;1.27;;;;;;;21.91;100.00;94189.59;4956755;28;20198;-86
2021/05/19 07:58:17;;;;;;;3.03;1.30;;;;;;;22.25;100.00;94277.09;4956742;29;20268;-87
2021/05/19 08:03:30;;;;;;;5.33;1.27;;;;;;;22.48;100.00;94147.88;4956373;28;20197;-87
2021/05/19 08:05:58;;;;;;;1.37;1.27;;;;;;;22.48;100.00;94153.22;4956960;28;20693;-86
2021/05/19 08:08:25;;;;;;;1.43;1.27;;;;;;;22.48;100.00;94080.13;4956217;28;20749;-87
2021/05/19 08:10:52;;;;;;;2.83;1.30;;;;;;;22.54;100.00;94038.84;4956626;28;20206;-87
2021/05/19 08:13:19;;;;;;;1.13;1.07;;;;;;;22.60;100.00;94034.22;4956273;28;20205;-87
2021/05/19 08:15:46;;;;;;;1.27;1.17;;;;;;;22.61;100.00;93983.06;4956612;29;20285;-87
2021/05/19 08:18:13;;;;;;;3.03;1.30;;;;;;;22.39;100.00;94039.84;4956383;28;20237;-88
2021/05/19 08:20:41;;;;;;;1.63;1.53;;;;;;;22.30;100.00;93996.06;4956804;29;20201;-88
2021/05/19 08:23:08;;;;;;;5.63;1.53;;;;;;;22.30;100.00;94015.59;4956219;28;20213;-87
2021/05/19 08:25:35;;;;;;;4.77;1.50;;;;;;;22.42;100.00;93993.78;4955757;29;20241;-86
2021/05/19 08:28:02;;;;;;;2.97;1.57;;;;;;;22.72;100.00;93995.25;4955814;29;20209;-86
2021/05/19 08:30:29;;;;;;;1.20;1.10;;;;;;;23.04;100.00;94044.63;4956236;28;20194;-88
2021/05/19 08:32:56;;;;;;;1.00;0.90;;;;;;;23.26;100.00;94047.50;4955862;28;20205;-88
2021/05/19 08:35:23;;;;;;;7.03;1.97;;;;;;;23.09;100.00;94086.63;4955743;28;20194;-87
2021/05/19 08:37:52;;;;;;;1.80;1.67;;;;;;;23.00;100.00;94055.13;4955449;28;20670;-87
2021/05/19 08:40:19;;;;;;;1.07;0.97;;;;;;;22.92;100.00;94144.16;4956111;28;20209;-87
2021/05/19 08:42:46;;;;;;;1.87;1.10;;;;;;;23.26;100.00;94108.34;4955839;29;20198;-87
2021/05/19 08:45:15;;;;;;;2.00;0.90;;;;;;;22.82;100.00;94666.53;4956382;28;20261;-86
2021/05/19 08:47:43;;;;;;;0.90;0.90;;;;;;;23.10;100.00;94622.22;4955710;28;20296;-86
2021/05/19 08:50:11;;;;;;;2.33;0.90;;;;;;;22.86;100.00;94686.34;4955614;29;20205;-87
2021/05/19 08:52:38;;;;;;;1.73;1.10;;;;;;;22.53;100.00;94825.13;4955573;28;20663;-86
2021/05/19 08:55:15;;;;;;;2.27;0.80;;;;;;;22.85;100.00;94887.53;4954347;28;20205;-87
2021/05/19 08:57:43;;;;;;;1.73;0.93;;;;;;;22.79;100.00;94997.34;4955459;28;20264;-88
2021/05/19 09:00:12;;;;;;;1.70;1.13;;;;;;;22.71;100.00;95133.66;4955954;28;20206;-86
2021/05/19 09:02:39;;;;;;;1.47;1.00;;;;;;;22.73;100.00;95045.81;4955385;28;20202;-87
2021/05/19 09:05:08;;;;;;;3.30;0.77;;;;;;;22.72;100.00;95154.84;4955543;28;20674;-87
2021/05/19 09:07:36;;;;;;;3.27;1.10;;;;;;;22.95;100.00;95014.25;4955675;29;20198;-88
2021/05/19 09:10:18;;;;;;;2.83;1.10;;;;;;;23.16;100.00;95145.59;4955436;29;20209;-88
2021/05/19 09:12:44;;;;;;;0.80;0.80;;;;;;;23.27;100.00;95220.41;4955603;28;20238;-87
2021/05/19 09:15:13;;;;;;;2.80;1.10;;;;;;;23.40;100.00;95223.69;4955879;28;20602;-88
2021/05/19 09:17:41;;;;;;;2.30;0.93;;;;;;;23.57;100.00;95264.47;4955203;28;20663;-88
2021/05/19 09:20:09;;;;;;;2.50;1.10;;;;;;;23.37;100.00;95334.13;4955307;29;20211;-88
2021/05/19 09:22:38;;;;;;;1.60;1.50;;;;;;;23.72;100.00;95393.28;4955358;28;20205;-89
2021/05/19 09:25:18;;;;;;;1.00;0.90;;;;;;;23.70;100.00;95539.53;4955394;28;20712;-88
2021/05/19 09:27:47;;;;;;;1.17;1.10;;;;;;;23.96;100.00;95656.66;4955303;28;20228;-89
2021/05/19 09:30:16;;;;;;;0.93;0.70;;;;;;;23.65;100.00;95880.16;4955202;29;20209;-88
2021/05/19 09:32:44;;;;;;;2.03;0.80;;;;;;;24.20;100.00;95860.34;4955199;29;20198;-86
2021/05/19 09:35:12;;;;;;;1.33;0.83;;;;;;;24.37;100.00;95855.69;4954703;28;20290;-86
2021/05/19 09:37:40;;;;;;;1.10;1.00;;;;;;;24.09;100.00;95905.09;4960483;28;20206;-85
2021/05/19 09:40:09;;;;;;;1.30;1.20;;;;;;;24.16;100.00;95956.72;4956005;28;20374;-86
2021/05/19 09:42:47;;;;;;;0.83;0.83;;;;;;;23.67;100.00;95993.41;4954322;29;20749;-85
2021/05/19 09:45:20;;;;;;;1.83;1.07;;;;;;;24.08;100.00;96007.38;4954563;29;20219;-86
2021/05/19 09:47:47;;;;;;;1.23;1.00;;;;;;;24.19;100.00;96009.91;4954105;28;20201;-86
2021/05/19 09:50:16;;;;;;;1.10;0.97;;;;;;;24.82;100.00;95978.06;4954351;28;20205;-87
2021/05/19 09:53:12;;;;;;;1.23;1.10;;;;;;;25.07;100.00;95988.22;4954573;29;20571;-87
2021/05/19 09:55:40;;;;;;;1.00;0.90;;;;;;;25.09;100.00;95996.03;4931633;28;20201;-86
2021/05/19 09:58:08;;;;;;;1.70;1.00;;;;;;;24.46;100.00;96003.00;4953789;29;20240;-86
2021/05/19 10:00:36;;;;;;;2.17;1.50;;;;;;;23.95;100.00;96006.69;4954226;28;20210;-87
2021/05/19 10:03:07;;;;;;;1.90;0.90;;;;;;;24.22;100.00;95997.06;4954020;29;20198;-87
2021/05/19 10:05:37;;;;;;;2.40;1.23;;;;;;;24.57;100.00;96005.53;4954495;29;20551;-88
2021/05/19 10:08:05;;;;;;;2.27;1.43;;;;;;;24.28;100.00;95996.88;4953879;29;20229;-87
2021/05/19 10:10:31;;;;;;;2.43;1.30;;;;;;;24.38;100.00;95996.16;4954397;28;20208;-87
2021/05/19 10:12:59;;;;;;;1.10;1.00;;;;;;;24.39;100.00;95990.53;4954017;28;20206;-87
2021/05/19 10:15:30;;;;;;;3.70;1.30;;;;;;;24.58;100.00;95999.06;4954382;28;20244;-87
2021/05/19 10:18:03;;;;;;;0.83;0.77;;;;;;;24.01;100.00;95986.09;4954107;28;20245;-87
2021/05/19 10:20:34;;;;;;;1.80;1.00;;;;;;;24.10;100.00;95983.75;4954537;29;20193;-88
2021/05/19 10:23:04;;;;;;;1.13;1.03;;;;;;;23.92;100.00;95977.66;4954400;28;20200;-88
2021/05/19 10:25:35;;;;;;;0.90;0.90;;;;;;;24.15;100.00;95981.16;4955024;29;20202;-88
2021/05/19 10:28:04;;;;;;;1.63;1.20;;;;;;;24.57;100.00;95948.31;4954252;28;20194;-88
2021/05/19 10:30:38;;;;;;;1.20;1.10;;;;;;;25.21;100.00;95953.66;4954486;28;20202;-88
2021/05/19 10:33:05;;;;;;;4.23;1.40;;;;;;;24.97;100.00;95960.44;4954212;29;20197;-88
2021/05/19 10:35:35;;;;;;;1.40;1.30;;;;;;;24.86;100.00;95954.97;4954277;28;20198;-88
2021/05/19 10:38:19;;;;;;;2.50;1.60;;;;;;;24.67;100.00;95937.66;4954451;29;20289;-89
2021/05/19 10:40:51;;;;;;;1.97;1.10;;;;;;;24.87;100.00;95945.03;4954442;28;20625;-87
2021/05/19 10:43:18;;;;;;;1.47;0.93;;;;;;;24.78;100.00;95955.47;4953689;29;20201;-87
2021/05/19 10:45:52;;;;;;;1.50;1.10;;;;;;;24.41;100.00;95964.25;4953942;29;20245;-87
2021/05/19 10:48:30;;;;;;;1.13;1.10;;;;;;;24.21;100.00;95969.38;4954288;29;20705;-87
2021/05/19 10:51:03;;;;;;;2.10;0.80;;;;;;;24.58;100.00;95958.78;4954482;28;20198;-88
2021/05/19 10:59:14;;;;;;;1.23;1.13;;;;;;;24.64;100.00;95946.22;4953885;29;20217;-88
2021/05/19 11:01:58;;;;;;;2.53;1.30;;;;;;;25.13;100.00;95938.81;4953798;29;20198;-87
2021/05/19 11:04:26;;;;;;;1.40;1.00;;;;;;;24.97;100.00;95938.94;4953638;29;20201;-87
2021/05/19 11:07:09;;;;;;;2.33;0.83;;;;;;;24.74;100.00;95935.56;4954480;29;20197;-88
2021/05/19 11:09:41;;;;;;;1.97;0.80;;;;;;;24.60;100.00;95926.31;4954089;29;20216;-87
2021/05/19 11:12:38;;;;;;;1.40;1.00;;;;;;;24.68;100.00;95939.25;4954049;28;20269;-87
2021/05/19 11:15:46;;;;;;;1.87;1.30;;;;;;;24.72;100.00;95923.44;4953247;29;20202;-87
2021/05/19 11:18:23;;;;;;;3.40;1.27;;;;;;;24.78;100.00;95920.53;4953505;28;20233;-88
2021/05/19 11:20:50;;;;;;;1.93;1.07;;;;;;;24.74;100.00;95924.81;4956999;28;20207;-86
2021/05/19 11:23:18;;;;;;;2.03;1.20;;;;;;;24.74;100.00;95914.06;4956755;28;20225;-86
2021/05/19 11:25:45;;;;;;;4.00;1.30;;;;;;;24.59;100.00;95927.34;4956956;28;20666;-88
2021/05/19 11:28:12;;;;;;;1.27;0.80;;;;;;;24.23;100.00;95916.25;4956751;28;20212;-86
2021/05/19 11:30:39;;;;;;;3.20;1.60;;;;;;;24.32;100.00;95912.03;4956989;28;20272;-86
2021/05/19 11:33:08;;;;;;;3.37;1.03;;;;;;;24.03;100.00;95910.66;4956390;28;20205;-86
2021/05/19 11:35:37;;;;;;;1.20;1.10;;;;;;;24.55;100.00;95902.06;4956949;28;20285;-87
2021/05/19 11:38:06;;;;;;;2.03;1.00;;;;;;;24.72;100.00;95901.94;4956791;29;20213;-86
2021/05/19 11:40:40;;;;;;;2.40;0.90;;;;;;;24.22;100.00;95917.31;4956888;28;20198;-86
2021/05/19 11:43:08;;;;;;;1.67;0.93;;;;;;;24.59;100.00;95900.47;4956240;29;20209;-86
2021/05/19 11:45:35;;;;;;;1.67;0.87;;;;;;;24.39;100.00;95896.53;4956787;29;20205;-87
2021/05/19 11:48:05;;;;;;;1.53;1.00;;;;;;;24.56;100.00;95887.56;4956404;28;20245;-86
2021/05/19 11:50:33;;;;;;;3.40;1.20;;;;;;;24.65;100.00;95897.56;4956512;29;20575;-86
2021/05/19 11:53:02;;;;;;;3.07;0.97;;;;;;;24.54;100.00;95889.69;4956163;28;20281;-86
2021/05/19 11:55:35;;;;;;;2.00;0.90;;;;;;;24.22;100.00;95898.53;4956680;28;20234;-87
2021/05/19 11:58:17;;;;;;;0.90;0.90;;;;;;;24.27;100.00;95901.25;4956062;29;20198;-86
2021/05/19 12:00:48;;;;;;;1.27;1.07;;;;;;;24.27;100.00;95887.00;4956487;28;20192;-86
2021/05/19 12:03:16;;;;;;;1.00;0.93;;;;;;;24.44;100.00;95883.16;4956476;29;20190;-86
2021/05/19 12:05:46;;;;;;;1.47;1.00;;;;;;;24.64;100.00;95892.47;4956341;29;20261;-86